Active alerts

Gallatin County, MT
  Details for Gallatin County, MT Winter Storm Warning
Gallatin County, MT
  Details for Gallatin County, MT Hydrologic Outlook

Thunder radar more information blitzortung!


Rain radar more information rain snow radar



Nearby METAR Reports

   
KNUQ - Mountain View, CA
Updated: Aug 24 2019 5:56 pm
Clear  
Clear  
   Wind: NNW 11.5 mph
Wind: NNW 11.5 mph
Temperature: 73.4°F
Dew Point: 60.8°F
Humidity: 65%
Barometer: 29.93 inHg
Clouds: Clear
Visibility: 10 mi
Cloud details: Clear ft
KNUQ 250056Z 33010KT 10SM CLR 23/16 A2993 RMK AO2 SLP137 T02330161
KSFO - San Francisco, CA
Updated: Aug 24 2019 5:56 pm
Few Clouds  
Few Clouds  
   Wind: WNW 19.6 mph
Wind: WNW 19.6 mph
Temperature: 66.2°F
Dew Point: 57.2°F
Humidity: 73%
Barometer: 29.92 inHg
Clouds: Few Clouds
Visibility: 10 mi
Cloud details: Few Clouds 500 ft
KSFO 250056Z 29017KT 10SM FEW005 19/14 A2992 RMK AO2 SLP131 T01940139
KSJC - San Jose, CA
Updated: Aug 24 2019 5:53 pm
Clear  
Clear  
   Wind: NNW 12.7 mph
Wind: NNW 12.7 mph
Temperature: 75.2°F
Dew Point: 62.6°F
Humidity: 65%
Barometer: 29.92 inHg
Clouds: Clear
Visibility: 10 mi
Cloud details: Clear ft
KSJC 250053Z 33011KT 10SM CLR 24/17 A2992 RMK AO2 SLP129 T02440167
KOAK - Oakland, CA
Updated: Aug 24 2019 5:53 pm
Few Clouds  
Few Clouds  
   Wind: NW 10.4 mph
Wind: NW 10.4 mph
Temperature: 69.8°F
Dew Point: 59°F
Humidity: 69%
Barometer: 29.94 inHg
Clouds: Few Clouds
Visibility: 10 mi
Cloud details: Few Clouds 1000 ft
KOAK 250053Z 31009KT 10SM FEW010 21/15 A2994 RMK AO2 SLP138 T02110150
KMRY - Monterey, CA
Updated: Aug 24 2019 5:54 pm
Partly Cloudy  
Partly Cloudy  
   Wind: North 8.1 mph
Wind: North 8.1 mph
Temperature: 66.2°F
Dew Point: 57.2°F
Humidity: 73%
Barometer: 29.96 inHg
Clouds: Partly Cloudy
Visibility: 10 mi
Cloud details: Partly Cloudy 1000 ft
KMRY 250054Z 35007KT 10SM SCT010 19/14 A2996 RMK AO2 SLP157 T01940139
KWYS - West Yellowstone, MT
Updated: Aug 24 2019 5:50 pm
Clear  
Clear  
   Wind: SSW 13.8 mph<br />Gust to 13.8 mph
Wind: SSW 13.8 mph
Gust to 13.8 mph
Temperature: 75.2°F
Dew Point: 33.8°F
Humidity: 22%
Barometer: 30.03 inHg
Clouds: Clear
Visibility: 10 mi
Cloud details: Clear ft
KWYS 250050Z AUTO 21012G22KT 10SM CLR 24/01 A3003 RMK AO2
KDCA - Washington, DC
Updated: Aug 24 2019 5:52 pm
Mostly Cloudy  
Mostly Cloudy  
   Wind: NNE 10.4 mph
Wind: NNE 10.4 mph
Temperature: 73.4°F
Dew Point: 55.4°F
Humidity: 53%
Barometer: 30.19 inHg
Clouds: Mostly Cloudy
Visibility: 10 mi
Cloud details: Partly Cloudy 8500 ft,
Mostly Cloudy 25000 ft
KDCA 250052Z 03009KT 10SM SCT085 BKN250 23/13 A3019 RMK AO2 SLP222 T02280128
KIAD - Washington Dulles, VA
Updated: Aug 24 2019 5:52 pm
Mostly Cloudy  
Mostly Cloudy  
   Wind: NE 5.8 mph
Wind: NE 5.8 mph
Temperature: 68°F
Dew Point: 53.6°F
Humidity: 60%
Barometer: 30.2 inHg
Clouds: Mostly Cloudy
Visibility: 10 mi
Cloud details: Mostly Cloudy 8000 ft,
Mostly Cloudy 20000 ft
KIAD 250052Z 05005KT 10SM BKN080 BKN200 20/12 A3020 RMK AO2 SLP223 T02000122 $
KMIA - Miami Beach, FL
Updated: Aug 24 2019 5:53 pm
Partly Cloudy  
Partly Cloudy  
   Wind: South 3.5 mph
Wind: South 3.5 mph
Temperature: 84.2°F
Heat Index: 91.4°F
Dew Point: 75.2°F
Humidity: 74%
Barometer: 29.93 inHg
Clouds: Partly Cloudy
Visibility: 10 mi
Cloud details: Few Clouds 2000 ft,
Few Clouds 14000 ft,
Partly Cloudy 25000 ft
KMIA 250053Z 18003KT 10SM FEW020 FEW140 SCT250 29/24 A2993 RMK AO2 SLP137 T02890244

Script developed by  Saratoga-weather.org Adapted for the template by  Weerstation Leuven

You find our weather info also at:

Weather Underground

Citizen Weather Observer Program (CWOP)

Equipment we use:

Weather-station
Ambient WS-1400-IP

Weather-program
Meteobridge

Weather-server
TP-LINK TL-MR3020

Ambient WS-1400-IP

Meteobridge

TP-LINK TL-MR3020